createdAt,value
2018-12-29T00:01:37.413Z,25.77
2018-12-29T00:06:36.950Z,30.93
2018-12-29T00:11:36.500Z,26.47
2018-12-29T00:16:36.063Z,28.40
2018-12-29T00:21:35.687Z,28.17
2018-12-29T00:26:35.227Z,25.17
2018-12-29T00:31:34.782Z,22.83
2018-12-29T00:36:34.328Z,26.47
2018-12-29T00:41:33.876Z,35.27
2018-12-29T00:46:33.414Z,27.37
2018-12-29T00:51:32.955Z,26.50
2018-12-29T00:56:32.650Z,33.27
2018-12-29T01:01:32.207Z,33.23
2018-12-29T01:06:31.799Z,30.23
2018-12-29T01:11:31.376Z,32.77
2018-12-29T01:16:30.994Z,30.83
2018-12-29T01:21:30.536Z,31.10
2018-12-29T01:26:30.130Z,37.20
2018-12-29T01:31:29.789Z,36.90
2018-12-29T01:36:29.496Z,36.73
2018-12-29T01:41:29.102Z,35.53
2018-12-29T01:46:28.656Z,42.83
2018-12-29T01:51:28.190Z,32.40
2018-12-29T01:56:27.738Z,42.80
2018-12-29T02:01:27.286Z,36.27
2018-12-29T02:06:26.826Z,44.07
2018-12-29T02:11:26.375Z,32.63
2018-12-29T02:16:25.934Z,37.43
2018-12-29T02:21:25.542Z,41.47
2018-12-29T02:26:25.101Z,38.23
2018-12-29T02:31:24.663Z,33.63
2018-12-29T02:36:24.190Z,40.37
2018-12-29T02:41:23.735Z,34.00
2018-12-29T02:46:23.283Z,36.90
2018-12-29T02:51:22.841Z,32.87
2018-12-29T02:56:22.391Z,33.90
2018-12-29T03:01:21.926Z,42.33
2018-12-29T03:06:21.473Z,37.13
2018-12-29T03:11:21.026Z,35.10
2018-12-29T03:16:20.603Z,35.43
2018-12-29T03:21:20.190Z,41.27
2018-12-29T03:26:19.722Z,38.10
2018-12-29T03:31:19.260Z,38.03
2018-12-29T03:36:18.804Z,33.70
2018-12-29T03:41:18.359Z,35.17
2018-12-29T03:46:17.889Z,32.73
2018-12-29T03:51:17.487Z,36.27
2018-12-29T03:56:17.027Z,40.67
2018-12-29T04:01:16.571Z,38.67
2018-12-29T04:06:16.116Z,33.33
2018-12-29T04:11:15.660Z,40.60
2018-12-29T04:16:15.197Z,38.70
2018-12-29T04:21:14.747Z,38.00
2018-12-29T04:26:14.296Z,37.87
2018-12-29T04:31:13.845Z,38.80
2018-12-29T04:36:13.395Z,41.30
2018-12-29T04:41:12.927Z,39.77
2018-12-29T04:46:12.481Z,48.50
2018-12-29T04:51:12.013Z,38.03
2018-12-29T04:56:11.546Z,42.37
2018-12-29T05:01:11.099Z,42.13
2018-12-29T05:06:10.643Z,37.57
2018-12-29T05:11:10.194Z,46.40
2018-12-29T05:16:13.020Z,38.27
2018-12-29T05:21:10.976Z,40.27
2018-12-29T05:26:10.523Z,44.53
2018-12-29T05:31:10.055Z,44.23
2018-12-29T05:36:09.599Z,37.10
2018-12-29T05:41:09.145Z,47.73
2018-12-29T05:46:08.685Z,43.50
2018-12-29T05:51:08.223Z,42.73
2018-12-29T05:56:07.775Z,44.10
2018-12-29T06:01:07.313Z,43.30
2018-12-29T06:06:06.837Z,36.40
2018-12-29T06:11:06.373Z,33.93
2018-12-29T06:16:05.908Z,35.07
2018-12-29T06:21:05.457Z,38.40
2018-12-29T06:26:05.002Z,39.20
2018-12-29T06:31:04.612Z,41.77
2018-12-29T06:36:04.158Z,38.43
2018-12-29T06:41:04.674Z,45.80
2018-12-29T06:46:04.223Z,43.87
2018-12-29T06:51:03.770Z,35.30
2018-12-29T06:56:03.302Z,44.93
2018-12-29T07:01:02.850Z,47.83
2018-12-29T07:06:02.423Z,41.20
2018-12-29T07:11:01.949Z,47.10
2018-12-29T07:16:01.495Z,44.33
2018-12-29T07:21:01.121Z,41.50
2018-12-29T07:26:00.696Z,53.07
2018-12-29T07:31:00.349Z,52.20
2018-12-29T07:35:59.882Z,48.17
2018-12-29T07:40:59.421Z,42.23
2018-12-29T07:45:59.005Z,42.30
2018-12-29T07:50:58.686Z,44.77
2018-12-29T07:55:58.217Z,36.70
2018-12-29T08:00:57.750Z,34.00
2018-12-29T08:05:57.309Z,39.00
2018-12-29T08:10:56.879Z,45.17
2018-12-29T08:15:56.425Z,36.10
2018-12-29T08:20:56.017Z,41.33
2018-12-29T08:25:55.635Z,37.47
2018-12-29T08:30:55.206Z,36.00
2018-12-29T08:35:54.726Z,38.00
2018-12-29T08:40:54.278Z,32.23
2018-12-29T08:45:53.824Z,33.10
2018-12-29T08:50:53.372Z,43.73
2018-12-29T08:55:52.907Z,40.73
2018-12-29T09:00:52.445Z,34.63
2018-12-29T09:05:51.990Z,46.07
2018-12-29T09:10:51.526Z,43.23
2018-12-29T09:15:51.057Z,34.53
2018-12-29T09:20:52.693Z,42.40
2018-12-29T09:25:52.418Z,39.60
2018-12-29T09:31:05.179Z,36.50
2018-12-29T09:36:04.796Z,35.27
2018-12-29T09:41:04.555Z,35.23
2018-12-29T09:46:04.127Z,43.07
2018-12-29T09:51:03.802Z,33.90
2018-12-29T09:56:03.461Z,28.43
2018-12-29T10:01:03.096Z,32.10
2018-12-29T10:06:02.705Z,29.33
2018-12-29T10:11:02.249Z,30.40
2018-12-29T10:16:01.804Z,27.67
2018-12-29T10:21:01.348Z,33.63
2018-12-29T10:26:00.891Z,31.03
2018-12-29T10:31:00.574Z,34.83
2018-12-29T10:36:01.197Z,25.97
2018-12-29T10:41:00.742Z,28.03
2018-12-29T10:46:00.285Z,26.30
2018-12-29T10:50:59.821Z,29.70
2018-12-29T10:55:59.361Z,27.13
2018-12-29T11:00:58.900Z,29.10
2018-12-29T11:05:58.455Z,27.63
2018-12-29T11:10:58.071Z,31.93
2018-12-29T11:15:57.634Z,30.30
2018-12-29T11:20:57.254Z,30.07
2018-12-29T11:25:56.810Z,31.57
2018-12-29T11:30:57.318Z,29.03
2018-12-29T11:35:56.862Z,31.20
2018-12-29T11:40:56.402Z,33.00
2018-12-29T11:45:55.953Z,34.90
2018-12-29T11:50:55.579Z,33.33
2018-12-29T11:55:55.185Z,40.07
2018-12-29T12:00:54.809Z,33.63
2018-12-29T12:05:54.355Z,28.93
2018-12-29T12:10:54.985Z,35.00
2018-12-29T12:15:54.637Z,34.20
2018-12-29T12:20:54.599Z,31.70
2018-12-29T12:25:54.210Z,32.13
2018-12-29T12:30:53.770Z,34.10
2018-12-29T12:35:53.592Z,25.63
2018-12-29T12:40:53.315Z,33.67
2018-12-29T12:45:54.206Z,33.97
2018-12-29T12:50:53.759Z,29.13
2018-12-29T12:55:53.394Z,23.87
2018-12-29T13:00:58.966Z,26.73
2018-12-29T13:05:59.106Z,22.20
2018-12-29T13:10:58.719Z,25.00
2018-12-29T13:15:58.342Z,31.80
2018-12-29T13:20:57.886Z,27.63
2018-12-29T13:25:57.526Z,24.77
2018-12-29T13:30:57.099Z,24.80
2018-12-29T13:35:56.710Z,29.63
2018-12-29T13:40:56.353Z,31.73
2018-12-29T13:45:55.925Z,30.73
2018-12-29T13:50:56.581Z,23.67
2018-12-29T13:55:56.135Z,20.47
2018-12-29T14:00:55.807Z,24.20
2018-12-29T14:05:55.501Z,25.10
2018-12-29T14:10:55.033Z,23.30
2018-12-29T14:15:54.578Z,23.57
2018-12-29T14:20:54.214Z,24.07
2018-12-29T14:25:54.370Z,26.47
2018-12-29T14:30:54.000Z,34.97
2018-12-29T14:35:53.613Z,26.37
2018-12-29T14:40:53.236Z,25.17
2018-12-29T14:45:52.779Z,24.30
2018-12-29T14:50:52.364Z,26.60
2018-12-29T14:55:53.050Z,29.73
2018-12-29T15:00:52.610Z,26.30
2018-12-29T15:05:52.156Z,23.10
2018-12-29T15:10:53.125Z,34.90
2018-12-29T15:15:53.458Z,29.00
2018-12-29T15:20:53.597Z,23.47
2018-12-29T15:25:53.145Z,27.53
2018-12-29T15:30:52.830Z,22.63
2018-12-29T15:35:52.390Z,24.73
2018-12-29T15:40:52.068Z,27.70
2018-12-29T15:45:51.621Z,27.00
2018-12-29T15:50:51.659Z,30.07
2018-12-29T15:55:51.206Z,23.67
2018-12-29T16:00:51.276Z,20.77
2018-12-29T16:05:50.906Z,26.37
2018-12-29T16:10:50.525Z,22.00
2018-12-29T16:15:50.080Z,23.50
2018-12-29T16:20:54.226Z,21.27
2018-12-29T16:25:51.337Z,20.83
2018-12-29T16:30:50.957Z,18.30
2018-12-29T16:35:50.586Z,28.20
2018-12-29T16:40:57.660Z,16.47
2018-12-29T16:45:51.518Z,16.07
2018-12-29T16:50:51.055Z,15.00
2018-12-29T16:55:50.779Z,15.70
2018-12-29T17:00:50.506Z,15.60
2018-12-29T17:05:50.353Z,13.40
2018-12-29T17:10:50.013Z,13.37
2018-12-29T17:15:49.567Z,16.80
2018-12-29T17:20:49.195Z,11.20
2018-12-29T17:25:48.815Z,11.47
2018-12-29T17:30:48.362Z,11.00
2018-12-29T17:35:47.979Z,12.83
2018-12-29T17:40:48.014Z,11.93
2018-12-29T17:45:47.718Z,16.57
2018-12-29T17:50:47.336Z,9.30
2018-12-29T17:55:47.242Z,8.50
2018-12-29T18:00:47.825Z,14.03
2018-12-29T18:05:47.436Z,11.93
2018-12-29T18:10:47.041Z,12.90
2018-12-29T18:15:46.723Z,11.60
2018-12-29T18:20:46.747Z,12.23
2018-12-29T18:25:46.359Z,12.13
2018-12-29T18:30:45.995Z,9.10
2018-12-29T18:35:46.021Z,9.33
2018-12-29T18:40:45.635Z,13.33
2018-12-29T18:45:45.167Z,15.10
2018-12-29T18:50:45.148Z,12.13
2018-12-29T18:55:44.761Z,12.00
2018-12-29T19:00:44.313Z,19.60
2018-12-29T19:05:44.042Z,16.97
2018-12-29T19:10:55.659Z,14.90
2018-12-29T19:15:55.594Z,16.87
2018-12-29T19:20:55.222Z,17.57
2018-12-29T19:25:55.181Z,18.50
2018-12-29T19:30:55.099Z,18.83
2018-12-29T19:35:56.010Z,21.63
2018-12-29T19:40:57.783Z,22.93
2018-12-29T19:45:57.845Z,21.67
2018-12-29T19:50:57.493Z,18.17
2018-12-29T19:55:57.458Z,21.60
2018-12-29T20:00:57.066Z,24.63
2018-12-29T20:05:56.679Z,23.67
2018-12-29T20:10:56.209Z,24.10
2018-12-29T20:15:55.749Z,26.70
2018-12-29T20:20:55.382Z,24.87
2018-12-29T20:25:54.931Z,23.00
2018-12-29T20:30:54.466Z,25.00
2018-12-29T20:35:54.394Z,21.50
2018-12-29T20:40:54.044Z,24.03
2018-12-29T20:45:53.633Z,26.07
2018-12-29T20:50:53.254Z,24.47
2018-12-29T20:55:52.951Z,18.97
2018-12-29T21:00:52.912Z,19.57
2018-12-29T21:05:52.543Z,18.43
2018-12-29T21:10:52.135Z,20.53
2018-12-29T21:15:51.787Z,17.03
2018-12-29T21:20:51.495Z,18.83
2018-12-29T21:25:51.546Z,25.23
2018-12-29T21:30:51.225Z,17.07
2018-12-29T21:35:50.864Z,13.93
2018-12-29T21:40:50.490Z,15.07
2018-12-29T21:45:50.154Z,17.17
2018-12-29T21:50:49.972Z,14.07
2018-12-29T21:55:49.585Z,14.17
2018-12-29T22:00:49.130Z,16.27
2018-12-29T22:05:48.688Z,13.07
2018-12-29T22:10:48.411Z,14.20
2018-12-29T22:15:48.122Z,13.23
2018-12-29T22:20:47.679Z,15.43
2018-12-29T22:25:48.634Z,12.47
2018-12-29T22:30:48.278Z,12.23
2018-12-29T22:35:47.834Z,10.10
2018-12-29T22:40:47.529Z,9.73
2018-12-29T22:45:47.365Z,9.47
2018-12-29T22:50:46.897Z,12.00
2018-12-29T22:55:46.515Z,10.77
2018-12-29T23:00:48.227Z,7.73
2018-12-29T23:05:47.936Z,13.23
2018-12-29T23:10:48.010Z,13.40
2018-12-29T23:15:47.825Z,9.33
2018-12-29T23:20:49.319Z,8.87
2018-12-29T23:25:49.066Z,9.90
2018-12-29T23:30:48.727Z,10.83
2018-12-29T23:35:48.405Z,8.57
2018-12-29T23:40:48.099Z,13.20
2018-12-29T23:45:48.010Z,10.97
2018-12-29T23:50:47.676Z,8.97
2018-12-29T23:55:47.379Z,9.80
